Terminal Aerodrome Forecast
Issued by NWS

Home | Current Version | Previous Version | Text Only | Print | Product List | Glossary Off
Versions: 1 2 3 4 5 6 7 8 9 10 11 12 13 14 15 16 17 18 19 20 21 22 23 24 25

715
FTUS42 KMHX 212348
TAFISO
TAF
KISO 212348Z 2200/2224 00000KT P6SM SCT020
     FM220500 VRB04KT 3SM BR BKN007
     FM221300 21008KT P6SM VCSH OVC035
      AMD LTD TO CLD VIS AND WIND=

USA.gov is the U.S. government's official web portal to all federal, state and local government web resources and services.